Terminal Aerodrome Forecast
Issued by NWS Rapid City, SD

Current Version | Previous Version | Text Only | Print | Product List | Glossary On
Versions: 1 2 3 4 5 6 7 8 9 10 11 12 13 14 15 16 17 18 19 20 21 22 23 24 25 26 27 28 29 30
813
FTUS43 KUNR 292320
TAFRAP
TAF
KRAP 292320Z 3000/3024 VRB05KT P6SM SCT040
     FM300900 15006KT P6SM VCFG SCT250
      TEMPO 3009/3013 2SM BR SCT002
     FM301300 17006KT P6SM BKN110=

USA.gov is the U.S. government's official web portal to all federal, state and local government web resources and services.